Time;durP1;ratioP1;P1;durP2;ratioP2;P2;SDS_P1;SDS_P2;PMS_P1;PMS_P2;Temp;Humidity;BMP_temperature;BMP_pressure;BME280_temperature;BME280_humidity;BME280_pressure;Samples;Min_cycle;Max_cycle;Signal;HPM_P1;HPM_P2
2021/07/12 00:04:21;;;;;;;10.43;3.40;;;11.50;99.90;;;11.95;100.00;94982.00;2399010;55;34075;-52
2021/07/12 00:10:09;;;;;;;7.97;3.20;;;11.40;99.90;;;11.90;100.00;94976.00;2433628;54;34182;-51
2021/07/12 00:12:57;;;;;;;5.73;2.77;;;11.40;99.90;;;11.85;100.00;95004.00;2192217;55;27342;-51
2021/07/12 00:18:41;;;;;;;22.33;3.83;;;11.50;99.90;;;12.11;100.00;94981.00;2483735;53;33897;-51
2021/07/12 00:21:28;;;;;;;20.33;3.47;;;11.50;99.90;;;12.03;100.00;95000.00;2206226;55;26655;-50
2021/07/12 00:24:19;;;;;;;68.57;4.57;;;11.50;99.90;;;11.96;100.00;94996.00;2210886;54;26669;-51
2021/07/12 00:27:06;;;;;;;22.67;3.57;;;11.50;99.90;;;12.00;100.00;94985.00;2214656;54;27140;-51
2021/07/12 00:29:53;;;;;;;77.07;4.40;;;11.50;99.90;;;11.89;100.00;94989.00;2240662;53;26124;-51
2021/07/12 00:32:39;;;;;;;21.97;3.47;;;11.40;99.90;;;11.92;100.00;94992.00;2461769;54;26077;-51
2021/07/12 00:35:27;;;;;;;5.57;2.70;;;11.40;99.90;;;11.88;100.00;94988.00;2234540;55;26599;-51
2021/07/12 00:38:13;;;;;;;17.23;3.00;;;11.30;99.90;;;11.66;100.00;94982.00;2462675;54;26993;-51
2021/07/12 00:41:00;;;;;;;8.17;2.70;;;11.30;99.90;;;11.61;100.00;94989.00;2264836;54;26720;-51
2021/07/12 00:43:46;;;;;;;13.43;3.00;;;11.20;99.90;;;11.64;100.00;94995.00;2498525;54;26947;-51
2021/07/12 00:46:33;;;;;;;25.00;3.17;;;11.20;99.90;;;11.65;100.00;94985.00;2252049;55;27261;-51
2021/07/12 00:49:20;;;;;;;9.57;2.30;;;11.10;99.90;;;11.57;100.00;94983.00;2496856;54;26700;-51
2021/07/12 00:55:13;;;;;;;4.30;2.43;;;11.10;99.90;;;11.59;100.00;94947.00;2322708;56;34470;-51
2021/07/12 00:58:00;;;;;;;9.27;2.50;;;11.00;99.90;;;11.48;100.00;94961.00;2088712;58;26974;-51
2021/07/12 01:00:50;;;;;;;10.83;2.70;;;11.00;99.90;;;11.45;100.00;94964.00;2287202;58;27372;-51
2021/07/12 01:03:37;;;;;;;3.90;2.50;;;10.90;99.90;;;11.37;100.00;94958.00;2300557;57;27415;-51
2021/07/12 01:06:23;;;;;;;11.70;2.80;;;10.90;99.90;;;11.38;100.00;94947.00;2113249;57;26601;-51
2021/07/12 01:09:10;;;;;;;4.63;2.80;;;10.90;99.90;;;11.39;100.00;94956.00;2118461;57;26805;-50
2021/07/12 01:15:03;;;;;;;3.93;2.50;;;10.90;99.90;;;11.43;100.00;94937.00;2391325;55;33775;-51
2021/07/12 01:18:06;;;;;;;2.40;2.10;;;10.90;99.90;;;11.38;100.00;94958.00;2210997;56;27675;-51
2021/07/12 01:22:19;;;;;;;5.83;2.40;;;10.90;99.90;;;11.38;100.00;94950.00;2234024;56;26767;-51
2021/07/12 01:32:37;;;;;;;14.33;2.80;;;10.70;99.90;;;11.15;100.00;94923.00;2376223;55;33894;-52
2021/07/12 01:38:41;;;;;;;7.47;2.70;;;10.70;99.90;;;11.19;100.00;94920.00;2442815;54;33590;-50
2021/07/12 01:41:36;;;;;;;11.23;2.67;;;10.70;99.90;;;11.04;100.00;94934.00;2405857;55;27404;-51
2021/07/12 01:48:08;;;;;;;6.13;2.37;;;10.70;99.90;;;11.25;100.00;94901.00;2394222;55;33808;-51
2021/07/12 01:54:06;;;;;;;8.27;2.53;;;10.70;99.90;;;11.30;100.00;94897.00;2395916;54;34756;-51
2021/07/12 01:57:00;;;;;;;20.67;2.77;;;10.70;99.90;;;11.21;100.00;94917.00;2386149;55;26728;-51
2021/07/12 02:02:46;;;;;;;8.00;2.53;;;10.80;99.90;;;11.25;100.00;94885.00;2405690;55;33797;-52
2021/07/12 02:08:31;;;;;;;6.13;2.60;;;10.40;99.90;;;10.87;100.00;94874.00;2417242;55;33816;-49
2021/07/12 02:11:19;;;;;;;6.50;2.10;;;10.40;99.90;;;10.75;100.00;94887.00;2210652;55;26609;-51
2021/07/12 02:14:07;;;;;;;7.50;1.90;;;10.30;99.90;;;10.66;100.00;94888.00;2202614;56;27172;-50
2021/07/12 02:16:56;;;;;;;9.10;1.83;;;10.30;99.90;;;10.77;100.00;94884.00;2436300;55;27052;-50
2021/07/12 02:19:45;;;;;;;16.83;2.20;;;10.30;99.90;;;10.71;100.00;94877.00;2208062;57;26758;-50
2021/07/12 02:22:35;;;;;;;18.63;2.40;;;10.30;99.90;;;10.76;100.00;94868.00;2209287;56;26651;-50
2021/07/12 02:25:24;;;;;;;10.67;2.17;;;10.20;99.90;;;10.60;100.00;94868.00;2429982;55;27507;-51
2021/07/12 02:28:11;;;;;;;2.10;1.90;;;10.10;99.90;;;10.50;100.00;94868.00;2199610;56;26140;-50
2021/07/12 02:30:58;;;;;;;16.67;2.50;;;10.10;99.90;;;10.54;100.00;94863.00;2185134;56;26583;-50
2021/07/12 02:36:40;;;;;;;4.10;2.13;;;10.10;99.90;;;10.65;100.00;94843.00;2403761;55;33765;-50
2021/07/12 02:39:27;;;;;;;11.87;2.27;;;10.10;99.90;;;10.59;100.00;94866.00;2211741;56;26603;-50
2021/07/12 02:42:15;;;;;;;6.33;2.00;;;10.10;99.90;;;10.63;100.00;94870.00;2467463;54;26679;-50
2021/07/12 02:45:03;;;;;;;55.10;3.00;;;10.10;99.90;;;10.64;100.00;94865.00;2217503;55;27546;-50
2021/07/12 02:47:50;;;;;;;73.00;3.67;;;10.10;99.90;;;10.64;100.00;94865.00;2209131;56;26775;-50
2021/07/12 02:50:39;;;;;;;4.70;1.70;;;10.10;99.90;;;10.52;100.00;94858.00;2430729;55;26599;-50
2021/07/12 02:53:31;;;;;;;40.30;2.63;;;10.00;99.90;;;10.33;100.00;94867.00;2201665;56;26860;-50
2021/07/12 02:56:18;;;;;;;16.87;2.00;;;10.00;99.90;;;10.31;100.00;94871.00;2219545;55;27034;-50
2021/07/12 02:59:04;;;;;;;19.03;2.03;;;9.80;99.90;;;10.21;100.00;94878.00;2230963;55;27102;-51
2021/07/12 03:01:51;;;;;;;4.83;1.90;;;9.80;99.90;;;10.19;100.00;94878.00;2458267;55;27201;-50
2021/07/12 03:07:42;;;;;;;3.23;1.77;;;9.70;99.90;;;10.20;100.00;94855.00;2403634;55;34235;-50
2021/07/12 03:10:30;;;;;;;3.17;1.73;;;9.80;99.90;;;10.11;100.00;94875.00;2374671;55;26652;-50
2021/07/12 03:13:22;;;;;;;20.77;2.60;;;9.70;99.90;;;10.06;100.00;94873.00;2164661;56;26814;-50
2021/07/12 03:16:10;;;;;;;12.23;2.53;;;9.70;99.90;;;10.09;100.00;94875.00;2150687;56;26665;-50
2021/07/12 03:19:01;;;;;;;7.10;2.20;;;9.70;99.90;;;10.12;100.00;94869.00;2350741;57;26860;-50
2021/07/12 03:21:49;;;;;;;6.70;2.10;;;9.80;99.90;;;10.25;100.00;94869.00;2142842;58;26110;-50
2021/07/12 03:24:40;;;;;;;22.37;2.63;;;9.70;99.90;;;10.07;100.00;94864.00;2356009;56;26685;-50
2021/07/12 03:27:28;;;;;;;22.27;2.83;;;9.60;99.90;;;9.99;100.00;94874.00;2164285;56;26680;-50
2021/07/12 03:30:16;;;;;;;19.63;2.40;;;9.60;99.90;;;9.99;100.00;94875.00;2160746;56;26767;-51
2021/07/12 03:35:59;;;;;;;22.07;2.40;;;9.50;99.90;;;9.91;100.00;94857.00;2383873;55;33907;-51
2021/07/12 03:41:44;;;;;;;5.37;1.70;;;9.40;99.90;;;9.80;100.00;94848.00;2465079;53;35005;-50
2021/07/12 03:44:31;;;;;;;2.33;1.77;;;9.30;99.90;;;9.76;100.00;94871.00;2232168;54;27076;-50
2021/07/12 03:50:27;;;;;;;6.03;1.53;;;9.30;99.90;;;9.81;100.00;94846.00;2342321;56;35335;-50
2021/07/12 03:56:11;;;;;;;4.37;1.90;;;9.30;99.90;;;9.84;100.00;94853.00;2439320;54;33270;-50
2021/07/12 03:58:57;;;;;;;2.27;2.07;;;9.30;99.90;;;9.69;100.00;94865.00;2419497;55;26796;-51
2021/07/12 04:01:44;;;;;;;2.00;1.57;;;9.30;99.90;;;9.77;100.00;94860.00;2201329;55;26789;-51
2021/07/12 04:04:31;;;;;;;2.07;1.70;;;9.30;99.90;;;9.79;100.00;94863.00;2419663;55;26677;-50
2021/07/12 04:07:17;;;;;;;4.83;1.80;;;9.30;99.90;;;9.71;100.00;94860.00;2187508;55;26834;-51
2021/07/12 04:10:06;;;;;;;3.33;2.10;;;9.30;99.90;;;9.70;100.00;94856.00;2184822;55;27059;-51
2021/07/12 04:12:52;;;;;;;4.87;2.43;;;9.30;99.90;;;9.78;100.00;94858.00;2419011;54;27653;-50
2021/07/12 04:15:39;;;;;;;4.00;2.20;;;9.30;99.90;;;9.76;100.00;94856.00;2214336;55;26880;-50
2021/07/12 04:18:25;;;;;;;3.40;1.80;;;9.40;99.90;;;9.82;100.00;94862.00;2453335;54;26194;-50
2021/07/12 04:21:13;;;;;;;3.73;1.60;;;9.40;99.90;;;9.82;100.00;94865.00;2237206;55;26637;-50
2021/07/12 04:23:59;;;;;;;2.40;1.50;;;9.40;99.90;;;9.93;100.00;94855.00;2471369;54;26834;-50
2021/07/12 04:26:46;;;;;;;2.47;1.53;;;9.60;99.90;;;10.07;100.00;94856.00;2241275;55;27159;-51
2021/07/12 04:29:32;;;;;;;4.57;1.40;;;9.60;99.90;;;10.15;100.00;94848.00;2472814;54;26805;-50
2021/07/12 04:32:19;;;;;;;1.83;1.40;;;9.60;99.90;;;10.07;100.00;94846.00;2242225;55;27439;-51
2021/07/12 04:35:07;;;;;;;2.10;1.37;;;9.70;99.90;;;10.13;100.00;94845.00;2471366;54;26738;-50
2021/07/12 04:37:54;;;;;;;2.90;1.43;;;9.70;99.90;;;10.21;100.00;94841.00;2241768;55;26706;-50
2021/07/12 04:40:40;;;;;;;1.90;1.70;;;9.80;99.90;;;10.33;100.00;94841.00;2236189;55;26854;-50
2021/07/12 04:43:26;;;;;;;3.23;1.57;;;9.80;99.90;;;10.35;100.00;94830.00;2454498;54;26178;-50
2021/07/12 04:46:13;;;;;;;4.83;1.60;;;9.90;99.90;;;10.41;100.00;94842.00;2231809;55;26735;-50
2021/07/12 04:48:59;;;;;;;1.53;1.40;;;9.90;99.90;;;10.37;100.00;94837.00;2459049;54;26792;-50
2021/07/12 04:54:42;;;;;;;2.90;1.20;;;10.00;99.90;;;10.55;100.00;94806.00;2368243;55;33530;-51
2021/07/12 04:57:29;;;;;;;1.30;1.20;;;10.00;99.90;;;10.51;100.00;94819.00;2182193;57;26077;-50
2021/07/12 05:00:17;;;;;;;3.43;1.57;;;10.20;99.90;;;10.70;100.00;94824.00;2389094;55;26111;-51
2021/07/12 05:03:06;;;;;;;2.13;1.93;;;10.20;99.90;;;10.71;100.00;94827.00;2199498;56;26967;-51
2021/07/12 05:08:49;;;;;;;2.40;2.20;;;10.40;99.90;;;11.02;100.00;94810.00;2402094;55;34438;-50
2021/07/12 05:11:35;;;;;;;3.60;2.23;;;10.50;99.90;;;11.00;100.00;94838.00;2162242;57;26664;-50
2021/07/12 05:14:24;;;;;;;4.20;2.40;;;10.50;99.90;;;11.11;100.00;94836.00;2162210;57;26755;-51
2021/07/12 05:17:13;;;;;;;2.40;2.07;;;10.70;99.90;;;11.15;100.00;94832.00;2181792;56;26841;-50
2021/07/12 05:19:59;;;;;;;2.40;2.20;;;10.80;99.90;;;11.33;100.00;94836.00;2410156;55;26790;-50
2021/07/12 05:22:45;;;;;;;3.03;2.17;;;10.90;99.90;;;11.42;100.00;94843.00;2437779;55;26799;-51
2021/07/12 05:25:32;;;;;;;2.80;2.37;;;11.00;99.90;;;11.52;100.00;94847.00;2213184;56;26631;-51
2021/07/12 05:28:18;;;;;;;3.10;2.40;;;11.20;99.90;;;11.72;100.00;94842.00;2440143;55;26656;-50
2021/07/12 05:31:05;;;;;;;2.67;1.97;;;11.30;99.90;;;11.88;100.00;94838.00;2201602;56;26535;-51
2021/07/12 05:33:51;;;;;;;4.97;2.10;;;11.40;99.90;;;11.96;100.00;94840.00;2424627;55;26876;-50
2021/07/12 05:36:37;;;;;;;2.00;1.80;;;11.60;99.90;;;12.07;100.00;94838.00;2206681;56;26249;-52
2021/07/12 05:39:24;;;;;;;2.20;2.00;;;11.70;99.90;;;12.19;100.00;94838.00;2440123;55;26822;-50
2021/07/12 05:42:11;;;;;;;5.83;1.90;;;11.80;99.90;;;12.35;100.00;94833.00;2182757;55;26893;-50
2021/07/12 05:44:57;;;;;;;5.00;1.97;;;12.00;99.90;;;12.46;100.00;94832.00;2187338;55;26877;-51
2021/07/12 05:47:43;;;;;;;2.03;1.83;;;12.10;99.90;;;12.56;100.00;94836.00;2405258;55;26893;-51
2021/07/12 05:53:26;;;;;;;1.70;1.60;;;12.20;99.90;;;12.90;100.00;94811.00;2452382;54;33667;-50
2021/07/12 05:56:12;;;;;;;2.43;2.13;;;12.40;99.90;;;12.98;100.00;94829.00;2427828;55;27287;-51
2021/07/12 05:58:58;;;;;;;4.17;1.90;;;12.50;99.90;;;12.99;100.00;94826.00;2218776;55;27277;-50
2021/07/12 06:01:45;;;;;;;2.50;1.90;;;12.70;99.90;;;13.23;100.00;94823.00;2216303;56;27266;-51
2021/07/12 06:04:31;;;;;;;2.10;1.90;;;12.90;99.90;;;13.52;100.00;94826.00;2433185;55;26995;-50
2021/07/12 06:07:18;;;;;;;2.03;1.80;;;13.10;99.90;;;13.81;100.00;94816.00;2218496;55;27246;-50
2021/07/12 06:13:03;;;;;;;1.75;1.35;;;14.80;99.90;;;18.40;100.00;94768.00;2418462;55;34426;-51
2021/07/12 06:15:50;;;;;;;2.05;1.23;;;17.20;99.90;;;21.28;100.00;94756.00;2192100;56;27191;-52
2021/07/12 06:18:36;;;;;;;2.33;1.30;;;19.40;99.90;;;23.63;100.00;94760.00;2183867;56;26744;-51
2021/07/12 06:24:18;;;;;;;1.77;1.40;;;21.30;99.90;;;25.98;100.00;94740.00;2395402;55;34454;-51
2021/07/12 06:27:06;;;;;;;3.37;1.20;;;23.60;99.90;;;26.17;100.00;94744.00;2143055;56;26634;-52
2021/07/12 06:29:52;;;;;;;2.50;1.23;;;24.10;99.90;;;27.73;100.00;94745.00;2153239;56;27645;-52
2021/07/12 06:32:39;;;;;;;3.83;1.45;;;24.60;99.90;;;28.10;100.00;94744.00;2156267;56;26285;-52
2021/07/12 06:35:25;;;;;;;2.05;1.40;;;24.90;99.90;;;28.58;95.58;94739.00;2379340;55;27280;-52
2021/07/12 06:38:12;;;;;;;3.12;1.30;;;25.70;99.90;;;30.46;81.07;94736.00;2165957;56;26251;-50
2021/07/12 06:40:59;;;;;;;1.80;1.40;;;26.40;99.90;;;29.53;91.98;94734.00;2380199;55;26776;-50
2021/07/12 06:43:45;;;;;;;3.10;1.50;;;26.40;99.90;;;30.47;84.02;94724.00;2165853;56;25103;-50
2021/07/12 06:46:31;;;;;;;2.67;1.73;;;26.80;99.90;;;30.64;77.45;94724.00;2165469;56;26190;-50
2021/07/12 06:49:18;;;;;;;2.65;1.40;;;27.20;99.90;;;30.50;78.48;94723.00;2164046;56;25742;-50
2021/07/12 06:52:05;;;;;;;1.45;1.27;;;27.50;99.90;;;31.39;75.00;94716.00;2377656;55;26481;-50
2021/07/12 06:54:52;;;;;;;2.25;1.45;;;27.80;99.90;;;31.45;83.49;94714.00;2163235;56;26770;-50
2021/07/12 06:57:38;;;;;;;2.25;1.40;;;27.70;99.90;;;31.16;80.99;94701.00;2375583;56;25592;-50
2021/07/12 07:00:26;;;;;;;4.00;1.40;;;28.20;99.90;;;31.72;71.74;94710.00;2375430;56;25193;-49
2021/07/12 07:03:12;;;;;;;1.20;1.10;;;29.00;99.90;;;31.26;69.05;94709.00;2166666;56;27008;-50
2021/07/12 07:05:58;;;;;;;2.62;1.30;;;28.70;99.90;;;31.29;70.94;94700.00;2364670;57;25109;-50
2021/07/12 07:08:45;;;;;;;1.40;1.30;;;28.70;99.90;;;32.06;68.30;94710.00;2159403;57;26068;-49
2021/07/12 07:14:29;;;;;;;1.75;1.40;;;28.50;99.90;;;33.06;60.52;94692.00;2369905;56;33118;-50
2021/07/12 07:20:14;;;;;;;1.50;1.37;;;29.00;99.90;;;32.89;61.75;94692.00;2410470;55;32211;-50
2021/07/12 07:23:01;;;;;;;2.92;1.42;;;29.40;99.90;;;32.65;65.53;94699.00;2354390;56;25556;-51
2021/07/12 07:25:47;;;;;;;1.40;1.30;;;30.60;99.90;;;33.34;59.51;94698.00;2176252;56;25696;-50
2021/07/12 07:28:34;;;;;;;1.98;1.30;;;30.70;99.90;;;33.75;59.05;94691.00;2413345;55;25093;-51
2021/07/12 07:31:21;;;;;;;1.42;1.33;;;31.00;99.90;;;33.41;60.26;94685.00;2182627;55;25700;-50
2021/07/12 07:34:07;;;;;;;2.97;1.45;;;30.90;99.90;;;34.03;56.89;94688.00;2403239;55;26111;-50
2021/07/12 07:36:56;;;;;;;1.77;1.33;;;31.50;99.90;;;33.74;55.23;94689.00;2185228;55;25703;-50
2021/07/12 07:39:44;;;;;;;2.78;1.40;;;31.10;99.90;;;33.80;60.89;94680.00;2401816;55;25774;-50
2021/07/12 07:42:30;;;;;;;1.60;1.50;;;31.10;99.90;;;34.24;52.76;94681.00;2183712;55;25576;-50
2021/07/12 07:45:17;;;;;;;1.50;1.40;;;31.60;99.90;;;35.11;46.51;94681.00;2401936;55;26240;-50
2021/07/12 07:51:01;;;;;;;2.78;1.65;;;31.30;99.90;;;33.64;67.86;94667.00;2420909;54;33392;-50
2021/07/12 07:53:48;;;;;;;1.83;1.30;;;31.30;99.90;;;33.69;60.38;94662.00;2212221;55;26054;-50
2021/07/12 07:56:34;;;;;;;1.50;1.40;;;32.20;99.90;;;35.11;53.04;94663.00;2452877;55;25637;-50
2021/07/12 07:59:21;;;;;;;3.15;1.70;;;32.40;99.90;;;34.73;57.85;94655.00;2229525;55;25632;-51
2021/07/12 08:02:08;;;;;;;2.08;1.50;;;32.60;99.90;;;35.15;63.27;94650.00;2461110;55;25721;-50
2021/07/12 08:04:54;;;;;;;2.40;1.62;;;32.90;99.90;;;34.55;52.84;94653.00;2204622;55;26221;-50
2021/07/12 08:10:39;;;;;;;1.73;1.48;;;31.90;99.90;;;33.39;59.57;94647.00;2467903;54;33139;-50
2021/07/12 08:13:25;;;;;;;3.05;1.42;;;32.10;99.90;;;34.37;59.63;94649.00;2416465;55;25664;-50
2021/07/12 08:16:12;;;;;;;2.80;1.37;;;32.20;99.90;;;35.64;48.21;94646.00;2188131;55;25776;-50
2021/07/12 08:21:54;;;;;;;1.67;1.52;;;32.90;99.90;;;34.00;57.95;94628.00;2364634;55;33041;-50
2021/07/12 08:24:41;;;;;;;1.33;1.23;;;32.40;99.90;;;34.20;59.89;94630.00;2146604;56;26759;-49
2021/07/12 08:27:27;;;;;;;2.92;1.50;;;32.40;99.90;;;33.92;55.86;94633.00;2142560;56;26088;-50
2021/07/12 08:30:15;;;;;;;1.58;1.48;;;32.10;99.90;;;32.51;58.81;94621.00;2355720;56;25174;-50
2021/07/12 08:33:02;;;;;;;1.50;1.40;;;31.90;99.90;;;33.25;53.67;94625.00;2135633;56;25246;-50
2021/07/12 08:35:48;;;;;;;1.77;1.67;;;31.70;99.90;;;32.63;59.96;94617.00;2342006;56;25723;-50
2021/07/12 08:41:32;;;;;;;1.60;1.40;;;32.10;99.90;;;33.50;62.73;94609.00;2492281;54;32791;-49
2021/07/12 08:44:18;;;;;;;5.72;2.60;;;32.10;99.90;;;33.20;59.15;94603.00;2495023;54;25608;-50
2021/07/12 08:47:07;;;;;;;3.78;2.12;;;31.70;99.90;;;32.08;64.84;94600.00;2234159;55;26487;-50
2021/07/12 08:49:54;;;;;;;1.60;1.50;;;31.20;99.90;;;31.37;67.62;94599.00;2411098;55;25897;-49
2021/07/12 08:52:44;;;;;;;1.42;1.23;;;30.80;99.90;;;31.96;71.21;94605.00;2414638;55;26559;-49
2021/07/12 08:55:31;;;;;;;1.95;1.50;;;31.30;99.90;;;32.65;66.31;94606.00;2421711;55;25798;-52
2021/07/12 08:58:21;;;;;;;2.67;1.85;;;31.50;99.90;;;33.50;68.58;94598.00;2206717;56;25613;-50
2021/07/12 09:01:09;;;;;;;2.17;1.27;;;32.10;99.90;;;34.03;60.42;94598.00;2431062;55;25645;-49
2021/07/12 09:03:55;;;;;;;1.50;1.40;;;32.30;99.90;;;34.06;52.41;94592.00;2214815;55;25696;-49
2021/07/12 09:06:42;;;;;;;2.67;1.42;;;31.90;99.90;;;33.09;61.12;94596.00;2213899;55;26046;-49
2021/07/12 09:09:29;;;;;;;1.60;1.23;;;32.50;99.90;;;34.62;56.44;94598.00;2437883;55;25674;-49
2021/07/12 09:12:17;;;;;;;1.50;1.40;;;33.20;99.90;;;35.44;47.15;94597.00;2213500;55;25857;-49
2021/07/12 09:17:59;;;;;;;1.30;1.20;;;32.20;99.90;;;34.99;51.77;94577.00;2355007;56;33168;-49
2021/07/12 09:20:46;;;;;;;1.60;1.50;;;33.20;99.90;;;36.12;43.60;94584.00;2136356;58;25858;-49
2021/07/12 09:23:32;;;;;;;3.25;1.60;;;33.60;99.90;;;36.43;42.95;94587.00;2134662;56;25643;-49
2021/07/12 09:29:24;;;;;;;2.95;1.55;;;32.40;99.90;;;34.18;44.78;94586.00;2395701;55;32384;-51
2021/07/12 09:32:14;;;;;;;1.55;1.45;;;32.40;99.90;;;34.27;47.80;94592.00;2154230;56;26268;-49
2021/07/12 09:35:06;;;;;;;2.15;1.37;;;32.80;99.90;;;35.10;43.84;94590.00;2366469;57;25741;-48
2021/07/12 09:38:00;;;;;;;1.60;1.27;;;32.30;99.90;;;34.00;48.08;94585.00;2357913;56;25693;-49
2021/07/12 09:43:44;;;;;;;1.60;1.50;;;32.30;99.90;;;34.72;51.93;94574.00;2372473;55;33145;-50
2021/07/12 09:46:31;;;;;;;1.70;1.60;;;32.70;99.90;;;34.19;45.92;94571.00;2129712;58;25910;-50
2021/07/12 09:49:22;;;;;;;1.60;1.50;;;32.90;99.90;;;33.91;48.46;94568.00;2336874;57;25850;-50
2021/07/12 09:52:11;;;;;;;2.05;1.58;;;32.90;99.90;;;33.93;49.77;94568.00;2125889;56;26428;-49
2021/07/12 09:54:58;;;;;;;2.42;1.60;;;33.00;99.90;;;35.36;45.61;94566.00;2336209;56;25599;-50
2021/07/12 09:57:44;;;;;;;3.17;1.70;;;32.80;99.90;;;34.09;48.41;94569.00;2130776;56;25829;-50
2021/07/12 10:00:30;;;;;;;1.80;1.33;;;32.40;99.90;;;33.13;48.93;94557.00;2341186;56;25101;-49
2021/07/12 10:03:18;;;;;;;1.80;1.58;;;31.70;99.90;;;32.15;54.79;94567.00;2122952;56;26257;-49
2021/07/12 10:06:05;;;;;;;1.60;1.50;;;31.70;99.90;;;32.48;59.25;94563.00;2315740;57;25826;-49
2021/07/12 10:08:52;;;;;;;1.73;1.60;;;32.00;99.90;;;33.76;60.40;94555.00;2100531;58;26096;-49
2021/07/12 10:11:39;;;;;;;2.05;1.37;;;31.50;99.90;;;31.67;54.78;94550.00;2310128;57;26567;-49
2021/07/12 10:14:26;;;;;;;1.70;1.55;;;31.20;99.90;;;32.07;60.41;94542.00;2113255;58;25830;-49
2021/07/12 10:17:13;;;;;;;1.80;1.60;;;31.10;99.90;;;31.87;65.22;94539.00;2319339;57;26082;-49
2021/07/12 10:20:00;;;;;;;1.30;1.20;;;31.20;99.90;;;31.76;66.41;94543.00;2115669;58;26616;-49
2021/07/12 10:22:47;;;;;;;2.33;1.60;;;30.80;99.90;;;30.83;65.05;94540.00;2319629;57;25561;-49
2021/07/12 10:25:36;;;;;;;1.60;1.50;;;30.00;99.90;;;29.61;68.33;94533.00;2116729;57;25736;-49
2021/07/12 10:28:39;;;;;;;2.22;1.50;;;29.60;99.90;;;29.46;72.72;94534.00;2333266;56;25714;-49
2021/07/12 10:34:31;;;;;;;1.60;1.45;;;29.20;99.90;;;29.55;87.18;94524.00;2402702;55;33790;-51
2021/07/12 10:37:28;;;;;;;5.07;1.90;;;29.00;99.90;;;29.41;89.39;94537.00;2174922;56;27538;-49
2021/07/12 10:40:20;;;;;;;1.70;1.60;;;29.10;99.90;;;29.47;84.22;94534.00;2379778;56;25664;-51
2021/07/12 10:43:06;;;;;;;1.50;1.40;;;29.60;99.90;;;30.93;90.64;94540.00;2158085;55;26218;-49
2021/07/12 10:45:53;;;;;;;2.62;1.67;;;30.00;99.90;;;31.26;78.63;94540.00;2359225;55;25217;-48
2021/07/12 10:51:40;;;;;;;1.87;1.70;;;30.30;99.90;;;29.36;86.68;94510.00;2381611;55;32948;-50
2021/07/12 10:54:27;;;;;;;2.05;1.60;;;28.80;99.90;;;28.52;97.17;94516.00;2154557;56;26395;-50
2021/07/12 11:00:17;;;;;;;1.50;1.40;;;28.90;99.90;;;29.03;99.51;94490.00;2381317;55;33029;-51
2021/07/12 11:03:04;;;;;;;2.75;1.40;;;28.70;99.90;;;28.78;99.11;94490.00;2150481;57;26806;-51
2021/07/12 11:05:52;;;;;;;1.90;1.60;;;29.00;99.90;;;29.87;100.00;94496.00;2363813;56;25599;-50
2021/07/12 11:08:48;;;;;;;1.77;1.42;;;29.00;99.90;;;29.19;93.14;94499.00;2157504;57;25090;-51
2021/07/12 11:14:37;;;;;;;3.53;1.70;;;28.80;99.90;;;28.72;100.00;94492.00;2479212;53;33623;-51
2021/07/12 11:21:03;;;;;;;2.33;1.27;;;29.30;99.90;;;29.64;95.51;94486.00;2345524;55;31855;-51
2021/07/12 11:23:53;;;;;;;1.70;1.40;;;29.20;99.90;;;29.37;97.73;94493.00;2376084;56;26889;-51
2021/07/12 11:26:53;;;;;;;1.60;1.50;;;29.30;99.90;;;29.87;92.93;94488.00;2145398;55;25695;-51
2021/07/12 11:29:39;;;;;;;1.85;1.52;;;29.50;99.90;;;30.07;93.17;94476.00;2182905;55;26026;-51
2021/07/12 11:35:36;;;;;;;1.50;1.35;;;29.10;99.90;;;29.00;96.82;94461.00;2473440;53;33935;-51
2021/07/12 11:38:22;;;;;;;2.12;1.70;;;28.80;99.90;;;28.74;95.55;94476.00;2228577;55;26653;-51
2021/07/12 11:41:09;;;;;;;2.15;1.62;;;29.10;99.90;;;29.60;96.37;94480.00;2465361;54;26781;-50
2021/07/12 11:44:07;;;;;;;2.10;1.70;;;28.90;99.90;;;28.73;96.91;94467.00;2471503;54;25065;-51
2021/07/12 11:46:54;;;;;;;1.92;1.50;;;28.70;99.90;;;28.82;100.00;94465.00;2221924;55;26627;-50
2021/07/12 11:52:39;;;;;;;2.42;1.50;;;28.80;99.90;;;28.82;100.00;94446.00;2398539;55;34334;-50
2021/07/12 11:58:25;;;;;;;1.90;1.60;;;28.60;99.90;;;29.49;100.00;94452.00;2419517;55;33513;-51
2021/07/12 12:01:21;;;;;;;2.00;1.60;;;29.40;99.90;;;30.08;100.00;94445.00;2409457;55;26682;-50
2021/07/12 12:07:25;;;;;;;2.35;2.03;;;29.00;99.90;;;28.74;100.00;94436.00;2346356;55;31904;-50
2021/07/12 12:10:15;;;;;;;3.62;1.90;;;29.00;99.90;;;29.19;100.00;94442.00;2330939;57;26648;-51
2021/07/12 12:13:09;;;;;;;2.58;1.62;;;28.60;99.90;;;28.43;100.00;94453.00;2349165;57;25326;-50
2021/07/12 12:15:55;;;;;;;3.40;1.73;;;28.80;99.90;;;29.01;100.00;94446.00;2142301;58;26334;-50
2021/07/12 12:18:42;;;;;;;2.80;1.52;;;28.70;99.90;;;28.71;100.00;94445.00;2165502;56;26716;-50
2021/07/12 12:21:29;;;;;;;3.03;2.05;;;28.40;99.90;;;28.23;100.00;94452.00;2369811;56;25786;-50
2021/07/12 12:24:15;;;;;;;2.00;1.60;;;28.40;99.90;;;28.55;100.00;94440.00;2140379;58;27457;-51
2021/07/12 12:27:02;;;;;;;1.65;1.48;;;28.60;99.90;;;28.71;100.00;94447.00;2140671;58;26683;-50
2021/07/12 12:29:49;;;;;;;1.83;1.50;;;28.80;99.90;;;29.00;99.03;94426.00;2144196;58;26898;-50
2021/07/12 12:32:36;;;;;;;1.75;1.48;;;28.70;99.90;;;28.67;99.60;94425.00;2162500;57;26694;-50
2021/07/12 12:38:18;;;;;;;2.87;1.60;;;28.60;99.90;;;28.99;100.00;94416.00;2374172;55;33706;-50
2021/07/12 12:44:06;;;;;;;1.75;1.48;;;28.80;99.90;;;28.79;97.20;94400.00;2388860;55;34302;-51
2021/07/12 12:46:55;;;;;;;1.60;1.50;;;28.60;99.90;;;28.70;91.41;94408.00;2179030;57;25648;-50
2021/07/12 12:49:41;;;;;;;2.20;1.50;;;28.60;99.90;;;28.81;93.76;94403.00;2398541;55;27018;-50
2021/07/12 12:52:32;;;;;;;1.70;1.50;;;28.80;99.90;;;29.03;100.00;94406.00;2180130;56;27345;-51
2021/07/12 12:55:26;;;;;;;3.85;2.58;;;28.90;99.90;;;29.17;89.80;94404.00;2369372;57;26226;-50
2021/07/12 13:01:11;;;;;;;3.00;1.40;;;28.50;99.90;;;29.14;100.00;94375.00;2489447;53;33407;-51
2021/07/12 13:04:07;;;;;;;1.55;1.40;;;28.80;99.90;;;29.08;100.00;94387.00;2438322;55;26837;-50
2021/07/12 13:06:55;;;;;;;1.52;1.40;;;28.70;99.90;;;28.74;96.75;94387.00;2464092;54;26984;-51
2021/07/12 13:09:42;;;;;;;1.62;1.40;;;28.60;99.90;;;28.54;93.46;94395.00;2213926;55;25686;-50
2021/07/12 13:12:39;;;;;;;1.95;1.60;;;28.40;99.90;;;28.53;97.53;94392.00;2438397;54;26609;-50
2021/07/12 13:15:29;;;;;;;1.52;1.42;;;28.20;99.90;;;28.20;99.69;94385.00;2211945;55;26918;-50
2021/07/12 13:18:16;;;;;;;3.12;1.65;;;28.10;99.90;;;28.14;100.00;94386.00;2420918;54;26814;-50
2021/07/12 13:21:02;;;;;;;2.70;1.52;;;28.10;99.90;;;28.36;100.00;94387.00;2198097;55;27054;-50
2021/07/12 13:23:48;;;;;;;3.65;1.50;;;28.40;99.90;;;28.94;100.00;94386.00;2445078;54;25064;-50
2021/07/12 13:29:33;;;;;;;1.98;1.50;;;28.60;99.90;;;28.90;100.00;94385.00;2456475;53;33705;-49
2021/07/12 13:32:19;;;;;;;1.95;1.85;;;28.40;99.90;;;28.44;100.00;94387.00;2219252;55;26889;-50
2021/07/12 13:35:11;;;;;;;2.58;1.60;;;28.30;99.90;;;28.58;100.00;94394.00;2464358;54;27268;-50
2021/07/12 13:38:01;;;;;;;1.67;1.58;;;28.20;99.90;;;28.44;100.00;94395.00;2236888;55;26912;-50
2021/07/12 13:40:48;;;;;;;1.50;1.40;;;28.20;99.90;;;28.32;100.00;94383.00;2463454;54;26104;-50
2021/07/12 13:43:34;;;;;;;1.80;1.40;;;28.10;99.90;;;28.15;100.00;94377.00;2463295;54;26111;-50
2021/07/12 13:46:21;;;;;;;1.33;1.23;;;28.00;99.90;;;28.35;100.00;94388.00;2235959;55;26636;-50
2021/07/12 13:49:07;;;;;;;2.47;1.70;;;28.00;99.90;;;28.16;100.00;94389.00;2230450;55;25077;-50
2021/07/12 13:51:53;;;;;;;1.52;1.30;;;28.00;99.90;;;28.27;100.00;94383.00;2230436;55;25801;-50
2021/07/12 13:54:40;;;;;;;1.85;1.33;;;28.10;99.90;;;28.66;100.00;94385.00;2232231;55;26719;-50
2021/07/12 13:57:27;;;;;;;2.03;1.50;;;28.20;99.90;;;28.51;100.00;94388.00;2233592;55;26675;-50
2021/07/12 14:03:12;;;;;;;2.15;1.60;;;27.70;99.90;;;27.83;100.00;94361.00;2360285;56;34877;-50